createdAt,value
2023-05-08T00:01:25.291Z,27.11
2023-05-08T00:03:52.589Z,26.91
2023-05-08T00:06:19.503Z,26.95
2023-05-08T00:08:46.086Z,27.13
2023-05-08T00:11:12.664Z,27.27
2023-05-08T00:13:41.216Z,27.08
2023-05-08T00:16:12.679Z,26.86
2023-05-08T00:18:39.924Z,26.74
2023-05-08T00:21:12.657Z,26.92
2023-05-08T00:23:39.323Z,27.00
2023-05-08T00:26:05.940Z,27.04
2023-05-08T00:28:32.472Z,27.11
2023-05-08T00:31:02.325Z,27.13
2023-05-08T00:33:29.071Z,26.79
2023-05-08T00:36:05.675Z,26.83
2023-05-08T00:38:33.766Z,26.97
2023-05-08T00:41:01.271Z,26.92
2023-05-08T00:43:28.691Z,27.06
2023-05-08T00:45:57.105Z,26.95
2023-05-08T00:48:25.343Z,27.14
2023-05-08T00:50:54.464Z,27.08
2023-05-08T00:53:23.125Z,27.02
2023-05-08T00:55:51.690Z,27.14
2023-05-08T00:58:20.972Z,27.20
2023-05-08T01:00:50.643Z,26.98
2023-05-08T01:03:17.493Z,27.03
2023-05-08T01:05:44.328Z,26.85
2023-05-08T01:08:10.914Z,26.79
2023-05-08T01:11:19.244Z,26.83
2023-05-08T01:14:04.656Z,26.89
2023-05-08T01:16:49.947Z,26.79
2023-05-08T01:19:44.509Z,27.06
2023-05-08T01:22:52.500Z,27.05
2023-05-08T01:25:41.838Z,26.79
2023-05-08T01:28:20.162Z,26.65
2023-05-08T01:31:24.038Z,26.73
2023-05-08T01:34:00.025Z,26.93
2023-05-08T01:36:51.753Z,26.89
2023-05-08T01:40:00.944Z,26.90
2023-05-08T01:42:49.159Z,26.82
2023-05-08T01:45:22.316Z,26.75
2023-05-08T01:47:55.069Z,26.46
2023-05-08T01:50:30.479Z,26.45
2023-05-08T01:53:00.424Z,26.47
2023-05-08T01:55:34.256Z,26.39
2023-05-08T01:58:04.823Z,26.28
2023-05-08T02:00:31.847Z,26.36
2023-05-08T02:02:59.227Z,26.18
2023-05-08T02:05:28.394Z,25.70
2023-05-08T02:07:55.896Z,25.76
2023-05-08T02:10:25.910Z,25.87
2023-05-08T02:12:54.557Z,25.84
2023-05-08T02:15:22.199Z,25.76
2023-05-08T02:17:50.470Z,25.37
2023-05-08T02:20:20.089Z,25.35
2023-05-08T02:22:50.361Z,25.43
2023-05-08T02:25:18.106Z,25.54
2023-05-08T02:27:50.429Z,25.24
2023-05-08T02:30:19.096Z,25.42
2023-05-08T02:32:47.779Z,25.51
2023-05-08T02:35:16.965Z,25.44
2023-05-08T02:37:46.933Z,25.39
2023-05-08T02:40:15.166Z,25.22
2023-05-08T02:42:42.325Z,25.10
2023-05-08T02:45:12.022Z,24.89
2023-05-08T02:48:01.560Z,24.91
2023-05-08T02:51:00.864Z,24.90
2023-05-08T02:53:40.667Z,24.47
2023-05-08T02:56:11.278Z,24.44
2023-05-08T02:58:48.642Z,24.46
2023-05-08T03:01:25.827Z,24.82
2023-05-08T03:04:06.761Z,25.25
2023-05-08T03:06:46.755Z,25.38
2023-05-08T03:09:21.488Z,25.45
2023-05-08T03:11:53.618Z,25.27
2023-05-08T03:14:23.818Z,25.18
2023-05-08T03:16:55.863Z,25.10
2023-05-08T03:19:29.944Z,25.42
2023-05-08T03:21:58.176Z,25.19
2023-05-08T03:24:28.021Z,25.06
2023-05-08T03:26:56.519Z,24.98
2023-05-08T03:29:25.371Z,25.01
2023-05-08T03:31:54.009Z,24.77
2023-05-08T03:34:23.095Z,24.76
2023-05-08T03:36:50.847Z,24.67
2023-05-08T03:39:18.217Z,24.66
2023-05-08T03:41:45.683Z,24.56
2023-05-08T03:44:14.065Z,24.78
2023-05-08T03:46:42.150Z,24.68
2023-05-08T03:49:09.537Z,24.50
2023-05-08T03:51:39.916Z,24.20
2023-05-08T03:54:06.555Z,24.28
2023-05-08T03:56:34.214Z,24.73
2023-05-08T03:59:14.223Z,24.85
2023-05-08T04:01:50.332Z,24.58
2023-05-08T04:04:19.503Z,24.80
2023-05-08T04:07:12.336Z,24.22
2023-05-08T04:10:10.807Z,24.07
2023-05-08T04:12:50.544Z,23.60
2023-05-08T04:15:20.659Z,23.84
2023-05-08T04:17:55.799Z,24.30
2023-05-08T04:20:25.987Z,24.66
2023-05-08T04:22:54.742Z,24.61
2023-05-08T04:25:23.182Z,24.55
2023-05-08T04:27:54.994Z,24.49
2023-05-08T04:30:22.392Z,24.53
2023-05-08T04:32:50.534Z,24.57
2023-05-08T04:35:17.714Z,24.50
2023-05-08T04:37:46.205Z,24.01
2023-05-08T04:40:13.480Z,24.08
2023-05-08T04:42:43.600Z,24.45
2023-05-08T04:45:11.132Z,24.45
2023-05-08T04:47:37.972Z,24.55
2023-05-08T04:50:05.623Z,24.62
2023-05-08T04:52:33.748Z,24.12
2023-05-08T04:55:01.324Z,23.81
2023-05-08T04:57:28.506Z,23.91
2023-05-08T04:59:55.218Z,24.01
2023-05-08T05:02:22.039Z,24.29
2023-05-08T05:04:49.216Z,24.62
2023-05-08T05:07:15.837Z,24.55
2023-05-08T05:09:42.427Z,24.46
2023-05-08T05:12:09.605Z,24.73
2023-05-08T05:14:36.292Z,24.80
2023-05-08T05:17:02.937Z,24.96
2023-05-08T05:19:29.666Z,24.77
2023-05-08T05:21:56.253Z,24.92
2023-05-08T05:24:23.000Z,24.74
2023-05-08T05:26:49.524Z,25.01
2023-05-08T05:29:16.207Z,25.16
2023-05-08T05:31:43.097Z,25.33
2023-05-08T05:34:10.050Z,25.33
2023-05-08T05:36:36.901Z,25.29
2023-05-08T05:39:03.877Z,25.60
2023-05-08T05:41:31.060Z,25.79
2023-05-08T05:43:57.683Z,26.04
2023-05-08T05:46:31.066Z,26.07
2023-05-08T05:48:58.973Z,26.31
2023-05-08T05:51:27.491Z,26.18
2023-05-08T05:53:54.976Z,26.29
2023-05-08T05:56:23.114Z,26.45
2023-05-08T05:58:49.723Z,26.49
2023-05-08T06:05:56.538Z,26.50
2023-05-08T06:08:23.422Z,26.58
2023-05-08T06:10:50.528Z,26.62
2023-05-08T06:13:17.226Z,26.93
2023-05-08T06:15:43.940Z,26.88
2023-05-08T06:18:10.951Z,27.01
2023-05-08T06:20:40.636Z,27.12
2023-05-08T06:23:07.341Z,27.26
2023-05-08T06:25:33.962Z,27.59
2023-05-08T06:28:01.446Z,27.84
2023-05-08T06:35:05.468Z,28.03
2023-05-08T06:37:32.074Z,28.17
2023-05-08T06:40:10.965Z,28.10
2023-05-08T06:42:38.443Z,28.23
2023-05-08T06:45:06.459Z,28.37
2023-05-08T06:47:33.025Z,28.50
2023-05-08T06:50:00.575Z,28.48
2023-05-08T06:52:27.179Z,28.47
2023-05-08T06:54:53.803Z,28.11
2023-05-08T06:57:20.437Z,28.29
2023-05-08T06:59:46.982Z,28.35
2023-05-08T07:02:16.013Z,28.08
2023-05-08T07:04:44.313Z,27.56
2023-05-08T07:07:11.518Z,27.34
2023-05-08T07:09:38.102Z,27.29
2023-05-08T07:21:23.782Z,28.05
2023-05-08T07:23:53.642Z,27.95
2023-05-08T07:26:20.353Z,28.13
2023-05-08T07:28:47.064Z,27.73
2023-05-08T07:31:13.602Z,28.09
2023-05-08T07:33:40.792Z,28.41
2023-05-08T07:36:07.499Z,28.68
2023-05-08T07:38:34.101Z,29.82
2023-05-08T07:49:02.503Z,29.10
2023-05-08T07:51:29.183Z,29.53
2023-05-08T07:53:55.906Z,29.65
2023-05-08T07:56:23.051Z,29.66
2023-05-08T07:58:49.750Z,29.40
2023-05-08T08:01:17.932Z,29.28
2023-05-08T08:03:48.229Z,29.30
2023-05-08T08:06:14.927Z,29.38
2023-05-08T08:08:41.389Z,29.45
2023-05-08T08:11:07.952Z,29.30
2023-05-08T08:13:34.576Z,29.15
2023-05-08T08:16:03.805Z,29.09
2023-05-08T08:18:33.970Z,28.81
2023-05-08T08:21:01.093Z,28.81
2023-05-08T08:23:27.598Z,28.80
2023-05-08T08:25:54.288Z,29.18
2023-05-08T08:28:20.807Z,29.31
2023-05-08T08:30:47.337Z,29.15
2023-05-08T08:33:13.917Z,28.94
2023-05-08T08:35:40.689Z,28.66
2023-05-08T08:38:07.223Z,28.83
2023-05-08T08:40:39.179Z,29.03
2023-05-08T08:43:05.822Z,28.83
2023-05-08T08:45:32.384Z,28.78
2023-05-08T08:48:01.960Z,28.83
2023-05-08T08:50:32.575Z,28.90
2023-05-08T08:53:11.017Z,29.07
2023-05-08T08:55:42.306Z,28.92
2023-05-08T08:58:27.172Z,29.14
2023-05-08T09:00:56.044Z,29.73
2023-05-08T09:03:22.670Z,29.91
2023-05-08T09:05:49.769Z,29.93
2023-05-08T09:08:18.584Z,29.88
2023-05-08T09:10:46.441Z,29.87
2023-05-08T09:13:13.028Z,29.86
2023-05-08T09:15:39.556Z,29.82
2023-05-08T09:18:06.496Z,29.94
2023-05-08T09:20:33.402Z,30.35
2023-05-08T09:23:02.604Z,30.60
2023-05-08T09:25:45.725Z,30.56
2023-05-08T09:28:19.441Z,30.80
2023-05-08T09:30:51.121Z,31.12
2023-05-08T09:33:18.501Z,30.71
2023-05-08T09:35:45.144Z,30.92
2023-05-08T09:38:29.858Z,30.79
2023-05-08T09:41:16.402Z,30.45
2023-05-08T09:43:44.536Z,30.36
2023-05-08T09:46:24.264Z,30.58
2023-05-08T09:48:55.330Z,30.16
2023-05-08T09:51:23.727Z,30.06
2023-05-08T09:54:46.874Z,30.14
2023-05-08T09:57:13.739Z,29.97
2023-05-08T10:04:18.564Z,30.52
2023-05-08T10:10:53.176Z,30.25
2023-05-08T10:13:19.815Z,30.55
2023-05-08T10:20:25.431Z,30.31
2023-05-08T10:22:53.588Z,30.37
2023-05-08T10:25:22.417Z,30.40
2023-05-08T10:28:18.404Z,30.49
2023-05-08T10:30:48.704Z,30.85
2023-05-08T10:33:19.938Z,30.76
2023-05-08T10:35:47.869Z,30.57
2023-05-08T10:38:16.431Z,30.95
2023-05-08T10:40:43.506Z,30.74
2023-05-08T10:43:10.081Z,30.72
2023-05-08T10:45:37.464Z,31.01
2023-05-08T10:48:32.490Z,30.85
2023-05-08T10:51:13.690Z,31.09
2023-05-08T10:53:53.704Z,31.51
2023-05-08T10:56:28.514Z,31.17
2023-05-08T10:58:59.320Z,31.52
2023-05-08T11:01:26.630Z,31.79
2023-05-08T11:03:55.565Z,31.44
2023-05-08T11:06:42.578Z,31.39
2023-05-08T11:09:09.211Z,31.38
2023-05-08T11:11:39.188Z,31.30
2023-05-08T11:14:08.731Z,31.28
2023-05-08T11:17:08.722Z,31.39
2023-05-08T11:19:36.394Z,31.22
2023-05-08T11:22:13.506Z,31.26
2023-05-08T11:25:01.455Z,31.18
2023-05-08T11:27:51.033Z,31.18
2023-05-08T11:30:33.158Z,31.33
2023-05-08T11:33:03.017Z,31.18
2023-05-08T11:35:44.606Z,31.20
2023-05-08T11:38:15.166Z,31.28
2023-05-08T11:40:45.875Z,31.33
2023-05-08T11:43:36.283Z,31.32
2023-05-08T11:46:08.308Z,31.23
2023-05-08T11:48:35.992Z,31.27
2023-05-08T11:51:03.605Z,31.20
2023-05-08T11:53:31.307Z,31.20
2023-05-08T11:55:59.643Z,31.32
2023-05-08T11:58:26.448Z,31.11
2023-05-08T12:00:53.132Z,30.73
2023-05-08T12:03:22.311Z,30.78
2023-05-08T12:05:50.363Z,30.90
2023-05-08T12:08:18.351Z,30.80
2023-05-08T12:10:56.746Z,30.56
2023-05-08T12:13:25.998Z,30.81
2023-05-08T12:15:57.815Z,30.91
2023-05-08T12:18:26.607Z,31.04
2023-05-08T12:20:57.633Z,31.13
2023-05-08T12:23:26.823Z,31.26
2023-05-08T12:25:55.445Z,31.41
2023-05-08T12:28:22.583Z,31.44
2023-05-08T12:30:49.700Z,31.55
2023-05-08T12:33:17.118Z,31.47
2023-05-08T12:35:44.040Z,31.34
2023-05-08T12:38:11.837Z,31.29
2023-05-08T12:40:55.932Z,31.48
2023-05-08T12:43:31.944Z,31.79
2023-05-08T12:45:58.563Z,32.00
2023-05-08T12:48:25.206Z,31.69
2023-05-08T12:50:51.785Z,31.58
2023-05-08T12:53:19.619Z,31.73
2023-05-08T12:55:54.339Z,31.48
2023-05-08T12:58:25.106Z,31.32
2023-05-08T13:00:52.796Z,31.36
2023-05-08T13:03:25.677Z,31.35
2023-05-08T13:05:53.890Z,31.29
2023-05-08T13:08:20.534Z,30.99
2023-05-08T13:10:54.303Z,31.12
2023-05-08T13:13:25.698Z,30.95
2023-05-08T13:15:54.362Z,31.02
2023-05-08T13:18:23.627Z,31.33
2023-05-08T13:20:50.401Z,30.99
2023-05-08T13:23:16.946Z,30.87
2023-05-08T13:25:43.732Z,30.83
2023-05-08T13:28:10.944Z,30.87
2023-05-08T13:30:38.007Z,31.07
2023-05-08T13:33:05.194Z,31.33
2023-05-08T13:35:32.761Z,31.46
2023-05-08T13:37:59.492Z,31.52
2023-05-08T13:40:26.366Z,31.74
2023-05-08T13:42:54.061Z,31.71
2023-05-08T13:45:20.779Z,31.60
2023-05-08T13:47:49.049Z,31.92
2023-05-08T13:50:17.116Z,32.29
2023-05-08T13:52:43.655Z,32.04
2023-05-08T13:55:12.525Z,32.21
2023-05-08T13:57:40.182Z,32.18
2023-05-08T14:00:08.582Z,31.64
2023-05-08T14:02:35.692Z,31.55
2023-05-08T14:05:02.538Z,32.04
2023-05-08T14:07:29.940Z,32.02
2023-05-08T14:09:56.674Z,31.98
2023-05-08T14:12:23.198Z,32.08
2023-05-08T14:14:49.759Z,31.98
2023-05-08T14:17:16.364Z,32.20
2023-05-08T14:19:43.043Z,31.95
2023-05-08T14:22:09.659Z,31.99
2023-05-08T14:24:36.303Z,32.46
2023-05-08T14:27:05.823Z,32.08
2023-05-08T14:29:33.917Z,32.19
2023-05-08T14:32:00.564Z,32.13
2023-05-08T14:34:27.365Z,32.07
2023-05-08T14:36:54.111Z,31.99
2023-05-08T14:39:20.911Z,32.36
2023-05-08T14:41:59.755Z,32.55
2023-05-08T14:44:34.423Z,32.40
2023-05-08T14:47:01.230Z,32.46
2023-05-08T14:49:36.756Z,32.64
2023-05-08T14:52:05.449Z,32.51
2023-05-08T14:54:32.279Z,32.37
2023-05-08T14:56:59.273Z,32.33
2023-05-08T14:59:25.896Z,32.00
2023-05-08T15:01:52.563Z,31.91
2023-05-08T15:04:19.448Z,31.85
2023-05-08T15:06:46.415Z,31.73
2023-05-08T15:09:13.035Z,31.75
2023-05-08T15:11:39.701Z,31.64
2023-05-08T15:14:06.445Z,31.50
2023-05-08T15:16:33.286Z,31.72
2023-05-08T15:18:59.883Z,32.07
2023-05-08T15:21:27.391Z,32.01
2023-05-08T15:23:55.277Z,32.12
2023-05-08T15:26:22.551Z,32.00
2023-05-08T15:28:49.647Z,31.84
2023-05-08T15:31:16.785Z,32.00
2023-05-08T15:33:45.076Z,32.04
2023-05-08T15:36:13.361Z,31.72
2023-05-08T15:38:41.013Z,32.02
2023-05-08T15:41:11.375Z,32.33
2023-05-08T15:43:39.596Z,32.36
2023-05-08T15:46:06.444Z,32.38
2023-05-08T15:48:33.339Z,32.09
2023-05-08T15:50:59.886Z,32.32
2023-05-08T15:53:26.661Z,32.40
2023-05-08T15:55:54.040Z,32.47
2023-05-08T15:58:21.100Z,32.26
2023-05-08T16:00:47.686Z,32.39
2023-05-08T16:03:14.455Z,32.47
2023-05-08T16:05:41.265Z,32.30
2023-05-08T16:08:12.083Z,32.36
2023-05-08T16:10:39.387Z,32.31
2023-05-08T16:13:06.244Z,32.42
2023-05-08T16:15:32.849Z,32.12
2023-05-08T16:17:59.400Z,32.20
2023-05-08T16:20:26.028Z,32.31
2023-05-08T16:22:54.910Z,32.27
2023-05-08T16:25:21.930Z,32.08
2023-05-08T16:27:49.196Z,32.10
2023-05-08T16:30:16.432Z,32.45
2023-05-08T16:32:44.514Z,32.45
2023-05-08T16:35:11.713Z,32.57
2023-05-08T16:37:38.678Z,32.51
2023-05-08T16:40:07.168Z,32.63
2023-05-08T16:42:33.852Z,32.87
2023-05-08T16:45:00.454Z,33.10
2023-05-08T16:47:26.960Z,33.03
2023-05-08T16:49:53.876Z,32.88
2023-05-08T16:52:20.583Z,33.06
2023-05-08T16:54:47.200Z,32.85
2023-05-08T16:57:13.693Z,32.75
2023-05-08T16:59:41.288Z,32.60
2023-05-08T17:02:07.906Z,32.64
2023-05-08T17:04:34.473Z,32.54
2023-05-08T17:07:01.100Z,32.61
2023-05-08T17:09:27.858Z,32.90
2023-05-08T17:11:54.378Z,33.14
2023-05-08T17:14:21.064Z,32.94
2023-05-08T17:16:47.748Z,33.03
2023-05-08T17:19:14.384Z,32.67
2023-05-08T17:21:41.013Z,32.88
2023-05-08T17:24:08.018Z,32.80
2023-05-08T17:26:34.765Z,32.61
2023-05-08T17:29:01.342Z,32.55
2023-05-08T17:31:28.037Z,32.91
2023-05-08T17:33:54.778Z,32.55
2023-05-08T17:36:21.498Z,32.59
2023-05-08T17:38:48.216Z,32.39
2023-05-08T17:41:14.696Z,32.41
2023-05-08T17:43:41.298Z,32.29
2023-05-08T17:46:08.075Z,32.36
2023-05-08T17:48:34.840Z,32.36
2023-05-08T17:51:02.753Z,32.57
2023-05-08T17:53:30.589Z,32.80
2023-05-08T17:55:57.650Z,33.04
2023-05-08T17:58:24.991Z,33.10
2023-05-08T18:00:51.934Z,33.29
2023-05-08T18:03:18.676Z,33.32
2023-05-08T18:05:45.240Z,33.22
2023-05-08T18:08:11.751Z,33.06
2023-05-08T18:10:39.260Z,33.16
2023-05-08T18:13:06.019Z,33.07
2023-05-08T18:15:35.074Z,33.12
2023-05-08T18:18:02.341Z,33.02
2023-05-08T18:20:28.845Z,32.94
2023-05-08T18:22:55.390Z,33.26
2023-05-08T18:25:21.900Z,33.13
2023-05-08T18:27:49.964Z,33.13
2023-05-08T18:30:19.470Z,33.17
2023-05-08T18:32:46.019Z,33.02
2023-05-08T18:35:12.628Z,32.95
2023-05-08T18:37:39.224Z,32.99
2023-05-08T18:40:06.389Z,32.94
2023-05-08T18:42:33.023Z,32.95
2023-05-08T18:45:00.744Z,32.95
2023-05-08T18:47:27.340Z,32.96
2023-05-08T18:49:53.923Z,33.00
2023-05-08T18:52:20.522Z,33.15
2023-05-08T18:54:47.122Z,33.10
2023-05-08T18:57:13.713Z,33.23
2023-05-08T18:59:40.227Z,33.11
2023-05-08T19:02:06.884Z,33.15
2023-05-08T19:04:33.414Z,32.97
2023-05-08T19:07:00.678Z,33.22
2023-05-08T19:09:27.385Z,32.82
2023-05-08T19:11:54.853Z,32.67
2023-05-08T19:14:21.356Z,32.64
2023-05-08T19:16:47.901Z,32.60
2023-05-08T19:19:14.431Z,31.88
2023-05-08T19:21:40.962Z,31.66
2023-05-08T19:24:07.796Z,31.83
2023-05-08T19:26:34.558Z,32.02
2023-05-08T19:29:01.043Z,31.94
2023-05-08T19:31:27.695Z,32.01
2023-05-08T19:33:54.666Z,31.80
2023-05-08T19:36:21.253Z,31.61
2023-05-08T19:38:47.771Z,31.88
2023-05-08T19:41:14.449Z,31.82
2023-05-08T19:43:40.916Z,31.90
2023-05-08T19:46:07.525Z,31.91
2023-05-08T19:48:34.082Z,32.02
2023-05-08T19:51:09.991Z,31.85
2023-05-08T19:53:36.642Z,31.91
2023-05-08T19:56:03.246Z,31.73
2023-05-08T19:58:29.766Z,31.62
2023-05-08T20:00:56.299Z,31.39
2023-05-08T20:03:23.175Z,31.51
2023-05-08T20:05:53.267Z,31.24
2023-05-08T20:08:19.947Z,31.06
2023-05-08T20:10:49.348Z,31.25
2023-05-08T20:13:16.813Z,31.25
2023-05-08T20:15:43.482Z,31.20
2023-05-08T20:18:10.159Z,30.82
2023-05-08T20:20:36.704Z,31.02
2023-05-08T20:23:03.220Z,31.28
2023-05-08T20:25:29.733Z,31.03
2023-05-08T20:27:56.273Z,30.99
2023-05-08T20:30:23.839Z,30.83
2023-05-08T20:32:50.631Z,31.15
2023-05-08T20:35:17.195Z,31.61
2023-05-08T20:37:46.010Z,31.73
2023-05-08T20:40:14.698Z,31.73
2023-05-08T20:42:41.511Z,31.85
2023-05-08T20:45:09.339Z,31.06
2023-05-08T20:47:36.301Z,31.06
2023-05-08T20:50:03.715Z,31.44
2023-05-08T20:52:32.119Z,31.73
2023-05-08T20:54:59.550Z,31.76
2023-05-08T20:57:26.220Z,31.48
2023-05-08T20:59:52.867Z,31.97
2023-05-08T21:02:19.403Z,31.96
2023-05-08T21:04:46.093Z,31.69
2023-05-08T21:07:12.758Z,31.58
2023-05-08T21:09:39.330Z,31.45
2023-05-08T21:12:06.170Z,31.14
2023-05-08T21:14:32.709Z,31.24
2023-05-08T21:16:59.388Z,31.46
2023-05-08T21:19:25.921Z,31.52
2023-05-08T21:21:52.624Z,31.33
2023-05-08T21:24:19.093Z,31.35
2023-05-08T21:26:45.788Z,31.49
2023-05-08T21:29:12.330Z,31.43
2023-05-08T21:31:39.319Z,31.88
2023-05-08T21:34:07.036Z,31.81
2023-05-08T21:36:35.110Z,31.62
2023-05-08T21:39:02.715Z,31.45
2023-05-08T21:41:29.331Z,31.46
2023-05-08T21:43:56.267Z,31.26
2023-05-08T21:46:22.986Z,31.10
2023-05-08T21:48:49.594Z,30.51
2023-05-08T21:51:16.189Z,30.67
2023-05-08T21:53:42.705Z,30.81
2023-05-08T21:56:09.384Z,30.72
2023-05-08T21:58:36.084Z,30.69
2023-05-08T22:01:02.857Z,30.74
2023-05-08T22:03:30.535Z,30.76
2023-05-08T22:05:57.198Z,30.48
2023-05-08T22:08:23.842Z,30.59
2023-05-08T22:10:50.714Z,30.45
2023-05-08T22:13:17.380Z,30.13
2023-05-08T22:15:44.072Z,30.05
2023-05-08T22:18:10.660Z,29.46
2023-05-08T22:20:37.194Z,28.98
2023-05-08T22:23:03.686Z,29.16
2023-05-08T22:25:30.262Z,29.23
2023-05-08T22:27:56.762Z,29.11
2023-05-08T22:30:23.417Z,29.29
2023-05-08T22:32:57.817Z,29.15
2023-05-08T22:35:26.689Z,36.02
2023-05-08T22:37:54.064Z,38.04
2023-05-08T22:40:21.857Z,38.79
2023-05-08T22:42:50.180Z,38.75
2023-05-08T22:45:17.273Z,39.18
2023-05-08T22:47:44.126Z,39.16
2023-05-08T22:59:27.204Z,39.13
2023-05-08T23:01:54.322Z,39.03
2023-05-08T23:04:21.449Z,39.06
2023-05-08T23:06:48.033Z,39.09
2023-05-08T23:09:14.545Z,38.88
2023-05-08T23:11:41.060Z,38.87
2023-05-08T23:14:07.552Z,38.80
2023-05-08T23:16:34.088Z,39.10
2023-05-08T23:19:00.803Z,34.38
2023-05-08T23:26:00.908Z,28.77
2023-05-08T23:28:27.762Z,28.58
2023-05-08T23:35:07.920Z,28.46
2023-05-08T23:37:34.476Z,28.37
2023-05-08T23:40:01.187Z,28.85
2023-05-08T23:46:58.217Z,39.61
2023-05-08T23:49:25.378Z,39.69
2023-05-08T23:51:51.923Z,39.64
2023-05-08T23:54:18.517Z,39.35
2023-05-08T23:56:45.152Z,39.18
2023-05-08T23:59:11.785Z,38.79
